Time;durP1;ratioP1;P1;durP2;ratioP2;P2;SDS_P1;SDS_P2;PMS_P1;PMS_P2;Temp;Humidity;BMP_temperature;BMP_pressure;BME280_temperature;BME280_humidity;BME280_pressure;Samples;Min_cycle;Max_cycle;Signal;HPM_P1;HPM_P2
2022/03/22 00:00:20;;;;;;;;;;;;;;;8.22;100.00;102972.38;5292415;28;19988;-86
2022/03/22 00:02:50;;;;;;;;;;;;;;;8.18;100.00;102969.22;5292467;28;20289;-83
2022/03/22 00:05:20;;;;;;;;;;;;;;;8.18;100.00;102969.22;5274877;28;19919;-83
2022/03/22 00:07:51;;;;;;;;;;;;;;;8.11;100.00;102962.94;5274529;28;19969;-83
2022/03/22 00:10:21;;;;;;;;;;;;;;;8.04;100.00;102968.25;5292437;28;20426;-83
2022/03/22 00:12:51;;;;;;;;;;;;;;;7.97;100.00;102972.72;5292629;28;19918;-83
2022/03/22 00:15:21;;;;;;;;;;;;;;;7.88;100.00;102968.44;5292356;28;19912;-82
2022/03/22 00:17:52;;;;;;;;;;;;;;;7.82;100.00;102979.09;5292532;28;20427;-82
2022/03/22 00:20:23;;;;;;;;;;;;;;;7.74;100.00;102977.34;5273726;28;19912;-82
2022/03/22 00:22:54;;;;;;;;;;;;;;;7.67;100.00;102971.03;5291939;28;19965;-82
2022/03/22 00:25:24;;;;;;;;;;;;;;;7.59;100.00;102969.28;5291988;28;19912;-81
2022/03/22 00:27:56;;;;;;;;;;;;;;;7.48;100.00;102976.97;5274313;28;19919;-80
2022/03/22 00:30:30;;;;;;;;;;;;;;;7.38;100.00;102977.22;5273831;28;20388;-80
2022/03/22 00:33:02;;;;;;;;;;;;;;;7.29;100.00;102979.16;5273363;28;19919;-80
2022/03/22 00:35:36;;;;;;;;;;;;;;;7.24;100.00;102986.91;5291702;28;20301;-82
2022/03/22 00:38:08;;;;;;;;;;;;;;;7.20;100.00;102979.44;5291718;28;19911;-82
2022/03/22 00:40:39;;;;;;;;;;;;;;;7.14;100.00;102983.66;5273634;28;19911;-81
2022/03/22 00:43:10;;;;;;;;;;;;;;;7.13;100.00;102979.31;5291355;28;19911;-82
2022/03/22 00:45:41;;;;;;;;;;;;;;;7.11;100.00;102984.03;5292097;28;20024;-81
2022/03/22 00:48:14;;;;;;;;;;;;;;;7.06;100.00;102978.34;5291679;28;19950;-81
2022/03/22 00:50:46;;;;;;;;;;;;;;;7.04;100.00;102980.38;5273061;28;19916;-84
2022/03/22 00:53:18;;;;;;;;;;;;;;;7.01;100.00;102986.13;5273548;28;20408;-86
2022/03/22 00:55:49;;;;;;;;;;;;;;;6.92;100.00;102981.84;5290431;28;19912;-83
2022/03/22 00:58:19;;;;;;;;;;;;;;;6.81;100.00;102987.63;5291763;28;20405;-81
2022/03/22 01:00:50;;;;;;;;;;;;;;;6.73;100.00;102991.19;5296209;28;20183;-79
2022/03/22 01:03:20;;;;;;;;;;;;;;;6.66;100.00;102988.38;5277008;28;19912;-82
2022/03/22 01:05:52;;;;;;;;;;;;;;;6.60;100.00;102983.75;5291427;28;19952;-81
2022/03/22 01:08:23;;;;;;;;;;;;;;;6.54;100.00;102983.63;5291317;28;19912;-82
2022/03/22 01:10:53;;;;;;;;;;;;;;;6.49;100.00;102988.69;5291136;28;19915;-81
2022/03/22 01:13:24;;;;;;;;;;;;;;;6.41;100.00;102976.97;5272777;28;20338;-85
2022/03/22 01:15:55;;;;;;;;;;;;;;;6.39;100.00;102986.19;5291292;28;19912;-82
2022/03/22 01:18:25;;;;;;;;;;;;;;;6.34;100.00;102983.25;5273253;28;19919;-82
2022/03/22 01:20:56;;;;;;;;;;;;;;;6.29;100.00;102988.28;5291359;28;20350;-81
2022/03/22 01:23:26;;;;;;;;;;;;;;;6.25;100.00;102984.28;5291172;28;20361;-83
2022/03/22 01:25:56;;;;;;;;;;;;;;;6.23;100.00;102991.66;5291393;28;19912;-83
2022/03/22 01:28:27;;;;;;;;;;;;;;;6.21;100.00;102989.16;5290912;28;20376;-83
2022/03/22 01:30:57;;;;;;;;;;;;;;;6.23;100.00;102995.19;5291144;28;19916;-82
2022/03/22 01:33:27;;;;;;;;;;;;;;;6.29;100.00;102993.66;5290702;28;19951;-81
2022/03/22 01:35:57;;;;;;;;;;;;;;;6.38;100.00;102992.59;5290807;28;19918;-80
2022/03/22 01:38:28;;;;;;;;;;;;;;;6.41;100.00;102993.06;5290609;28;19954;-81
2022/03/22 01:40:58;;;;;;;;;;;;;;;6.53;100.00;102993.50;5290148;28;19946;-80
2022/03/22 01:43:28;;;;;;;;;;;;;;;6.60;100.00;102994.50;5290479;28;19965;-81
2022/03/22 01:45:58;;;;;;;;;;;;;;;6.61;100.00;102995.31;5271633;28;20281;-80
2022/03/22 01:48:29;;;;;;;;;;;;;;;6.60;100.00;102996.34;5290039;28;19912;-79
2022/03/22 01:50:59;;;;;;;;;;;;;;;6.66;100.00;102998.28;5271908;28;19920;-79
2022/03/22 01:53:30;;;;;;;;;;;;;;;6.71;100.00;102994.06;5290006;28;19916;-83
2022/03/22 01:56:00;;;;;;;;;;;;;;;6.73;100.00;102991.19;5271757;28;19923;-81
2022/03/22 01:58:31;;;;;;;;;;;;;;;6.84;100.00;102985.44;5290052;28;19941;-81
2022/03/22 02:06:39;;;;;;;;;;;;;;;6.70;100.00;102978.97;5289762;28;19981;-80
2022/03/22 02:09:10;;;;;;;;;;;;;;;6.62;100.00;102986.25;5273165;28;19919;-80
2022/03/22 02:11:40;;;;;;;;;;;;;;;6.54;100.00;102984.44;5275546;28;20089;-79
2022/03/22 02:14:10;;;;;;;;;;;;;;;6.47;100.00;102982.66;5293693;28;19915;-79
2022/03/22 02:16:41;;;;;;;;;;;;;;;6.41;100.00;102984.19;5275554;28;20286;-83
2022/03/22 02:19:13;;;;;;;;;;;;;;;6.33;100.00;102977.03;5275366;28;20006;-85
2022/03/22 02:21:44;;;;;;;;;;;;;;;6.24;100.00;102983.44;5275275;28;20319;-80
2022/03/22 02:24:15;;;;;;;;;;;;;;;6.17;100.00;102984.31;5274852;28;19919;-80
2022/03/22 02:26:46;;;;;;;;;;;;;;;6.13;100.00;102981.13;5293719;28;19911;-83
2022/03/22 02:29:17;;;;;;;;;;;;;;;6.10;100.00;102976.13;5293744;28;20388;-81
2022/03/22 02:31:48;;;;;;;;;;;;;;;6.07;100.00;102982.66;5292751;28;19969;-82
2022/03/22 02:34:18;;;;;;;;;;;;;;;6.01;100.00;102978.03;5293630;28;20312;-82
2022/03/22 02:36:48;;;;;;;;;;;;;;;5.97;100.00;102981.22;5293688;28;19911;-80
2022/03/22 02:39:19;;;;;;;;;;;;;;;5.89;100.00;102982.06;5275340;28;20297;-82
2022/03/22 02:41:51;;;;;;;;;;;;;;;5.84;100.00;102980.88;5293351;28;20388;-81
2022/03/22 02:44:21;;;;;;;;;;;;;;;5.76;100.00;102987.13;5274500;28;19984;-80
2022/03/22 02:46:52;;;;;;;;;;;;;;;5.64;100.00;102986.66;5292891;28;20498;-80
2022/03/22 02:49:23;;;;;;;;;;;;;;;5.58;100.00;102992.69;5275005;28;19912;-84
2022/03/22 02:51:53;;;;;;;;;;;;;;;5.51;100.00;102986.34;5293524;28;20396;-81
2022/03/22 02:54:23;;;;;;;;;;;;;;;5.47;100.00;102986.88;5293008;28;19912;-81
2022/03/22 02:56:53;;;;;;;;;;;;;;;5.45;100.00;102987.03;5292892;28;19964;-81
2022/03/22 02:59:23;;;;;;;;;;;;;;;5.42;100.00;102990.06;5292811;28;20006;-80
2022/03/22 03:01:57;;;;;;;;;;;;;;;5.39;100.00;102993.06;5274949;28;20258;-80
2022/03/22 03:04:27;;;;;;;;;;;;;;;5.33;100.00;102993.75;5274794;28;20096;-79
2022/03/22 03:06:57;;;;;;;;;;;;;;;5.30;100.00;102980.69;5293008;28;19962;-79
2022/03/22 03:09:27;;;;;;;;;;;;;;;5.23;100.00;102991.22;5292804;28;19957;-85
2022/03/22 03:11:58;;;;;;;;;;;;;;;5.23;100.00;102988.53;5292943;28;19918;-84
2022/03/22 03:14:40;;;;;;;;;;;;;;;5.19;100.00;102989.91;5293194;28;19918;-80
2022/03/22 03:17:13;;;;;;;;;;;;;;;5.15;100.00;102995.78;5293788;28;19938;-79
2022/03/22 03:19:43;;;;;;;;;;;;;;;5.13;100.00;102995.94;5292643;28;19912;-79
2022/03/22 03:22:14;;;;;;;;;;;;;;;5.11;100.00;103000.63;5293597;28;19919;-79
2022/03/22 03:24:44;;;;;;;;;;;;;;;5.04;100.00;103005.81;5293012;28;19947;-79
2022/03/22 03:27:15;;;;;;;;;;;;;;;5.01;100.00;102999.94;5293079;28;19975;-79
2022/03/22 03:29:45;;;;;;;;;;;;;;;4.98;100.00;103002.94;5292395;28;20396;-80
2022/03/22 03:32:16;;;;;;;;;;;;;;;5.02;100.00;103006.97;5292794;28;19912;-82
2022/03/22 03:34:46;;;;;;;;;;;;;;;4.96;100.00;102997.75;5292645;28;19912;-81
2022/03/22 03:37:16;;;;;;;;;;;;;;;4.90;100.00;103001.13;5292367;28;20326;-81
2022/03/22 03:39:47;;;;;;;;;;;;;;;4.81;100.00;103006.63;5295491;28;20300;-80
2022/03/22 03:42:17;;;;;;;;;;;;;;;4.77;100.00;103005.28;5299751;28;19912;-81
2022/03/22 03:47:36;;;;;;;;;;;;;;;4.69;100.00;103003.41;5269291;28;20429;-58
2022/03/22 03:50:07;;;;;;;;;;;;;;;4.66;100.00;103007.25;5269559;28;19916;-56
2022/03/22 03:52:38;;;;;;;;;;;;;;;4.63;100.00;103018.28;5251158;28;20065;-58
2022/03/22 03:55:08;;;;;;;;;;;;;;;4.62;100.00;103010.44;5251183;28;20379;-60
2022/03/22 03:57:39;;;;;;;;;;;;;;;4.59;100.00;103014.28;5251900;28;19916;-59
2022/03/22 04:00:09;;;;;;;;;;;;;;;4.51;100.00;103014.25;5251467;28;19912;-56
2022/03/22 04:02:40;;;;;;;;;;;;;;;4.46;100.00;103021.94;5251341;28;20354;-56
2022/03/22 04:05:11;;;;;;;;;;;;;;;4.43;100.00;103022.25;5251056;28;19912;-59
2022/03/22 04:07:41;;;;;;;;;;;;;;;4.41;100.00;103019.75;5251161;28;19920;-57
2022/03/22 04:10:12;;;;;;;;;;;;;;;4.40;100.00;103015.38;5250844;28;19916;-57
2022/03/22 04:12:42;;;;;;;;;;;;;;;4.38;100.00;103020.06;5250796;28;20448;-58
2022/03/22 04:15:13;;;;;;;;;;;;;;;4.37;100.00;103022.91;5250701;28;19972;-58
2022/03/22 04:17:43;;;;;;;;;;;;;;;4.29;100.00;103026.41;5250708;28;19912;-58
2022/03/22 04:20:13;;;;;;;;;;;;;;;4.25;100.00;103025.03;5249978;28;19912;-60
2022/03/22 04:22:44;;;;;;;;;;;;;;;4.21;100.00;103023.69;5250003;28;19912;-59
2022/03/22 04:25:14;;;;;;;;;;;;;;;4.22;100.00;103027.19;5250263;28;19919;-59
2022/03/22 04:33:22;;;;;;;;;;;;;;;4.37;100.00;103030.91;5268440;28;19971;-60
2022/03/22 04:35:52;;;;;;;;;;;;;;;4.40;100.00;103028.75;5250646;28;20011;-59
2022/03/22 04:38:23;;;;;;;;;;;;;;;4.41;100.00;103025.09;5250563;28;20295;-61
2022/03/22 04:40:53;;;;;;;;;;;;;;;4.39;100.00;103027.09;5250488;28;19919;-57
2022/03/22 04:43:23;;;;;;;;;;;;;;;4.34;100.00;103033.91;5250118;28;19916;-59
2022/03/22 04:45:54;;;;;;;;;;;;;;;4.26;100.00;103031.22;5250447;28;19955;-59
2022/03/22 04:48:24;;;;;;;;;;;;;;;4.21;100.00;103025.53;5250656;28;19920;-59
2022/03/22 04:56:43;;;;;;;;;;;;;;;4.26;100.00;103029.41;5250443;28;19924;-57
2022/03/22 04:56:43;;;;;;;;;;;;;;;4.18;100.00;103023.16;5268781;28;19923;-55
2022/03/22 04:59:15;;;;;;;;;;;;;;;4.16;100.00;103035.84;5250280;28;19920;-55
2022/03/22 05:01:45;;;;;;;;;;;;;;;4.12;100.00;103029.16;5250081;28;19951;-55
2022/03/22 05:04:16;;;;;;;;;;;;;;;4.07;100.00;103030.47;5250417;28;19951;-59
2022/03/22 05:06:46;;;;;;;;;;;;;;;4.05;100.00;103024.44;5268330;28;19912;-59
2022/03/22 05:09:17;;;;;;;;;;;;;;;4.03;100.00;103044.34;5250227;28;20003;-57
2022/03/22 05:11:47;;;;;;;;;;;;;;;4.01;100.00;103041.81;5268335;28;20370;-55
2022/03/22 05:14:17;;;;;;;;;;;;;;;4.01;100.00;103036.47;5248806;28;19912;-58
2022/03/22 05:16:48;;;;;;;;;;;;;;;4.00;100.00;103037.47;5247353;28;20352;-56
2022/03/22 05:19:18;;;;;;;;;;;;;;;4.05;100.00;103040.47;5247520;28;20342;-55
2022/03/22 05:21:51;;;;;;;;;;;;;;;4.00;100.00;103048.16;5250403;28;19912;-58
2022/03/22 05:24:25;;;;;;;;;;;;;;;3.94;100.00;103045.28;5248084;28;19916;-60
2022/03/22 05:26:55;;;;;;;;;;;;;;;3.93;100.00;103047.13;5250259;28;19923;-59
2022/03/22 05:29:34;;;;;;;;;;;;;;;3.93;100.00;103055.13;5249982;28;19912;-59
2022/03/22 05:32:10;;;;;;;;;;;;;;;3.90;100.00;103049.25;5250084;28;19920;-57
2022/03/22 05:34:59;;;;;;;;;;;;;;;3.90;100.00;103058.13;5248118;28;20469;-55
2022/03/22 05:37:32;;;;;;;;;;;;;;;3.91;100.00;103049.09;5249422;28;20011;-60
2022/03/22 05:40:16;;;;;;;;;;;;;;;3.90;100.00;103051.94;5249825;28;19938;-55
2022/03/22 05:42:55;;;;;;;;;;;;;;;3.93;100.00;103056.97;5250994;28;19954;-58
2022/03/22 05:45:26;;;;;;;;;;;;;;;3.95;100.00;103053.16;5253166;28;19920;-55
2022/03/22 05:48:00;;;;;;;;;;;;;;;4.02;100.00;103054.19;5253657;28;19983;-59
2022/03/22 05:50:30;;;;;;;;;;;;;;;4.04;100.00;103059.38;5253488;28;19920;-58
2022/03/22 05:53:03;;;;;;;;;;;;;;;4.05;100.00;103061.88;5253758;28;19919;-58
2022/03/22 05:55:33;;;;;;;;;;;;;;;4.08;100.00;103053.53;5252574;28;19916;-56
2022/03/22 05:58:26;;;;;;;;;;;;;;;4.11;100.00;103048.88;5254974;28;19919;-56
2022/03/22 06:01:05;;;;;;;;;;;;;;;4.18;100.00;103052.59;5271841;28;19916;-58
2022/03/22 06:03:36;;;;;;;;;;;;;;;4.28;100.00;103053.31;5253049;28;19916;-56
2022/03/22 06:06:06;;;;;;;;;;;;;;;4.32;100.00;103062.69;5253542;28;19912;-59
2022/03/22 06:08:43;;;;;;;;;;;;;;;4.37;100.00;103060.34;5253306;28;19912;-58
2022/03/22 06:11:14;;;;;;;;;;;;;;;4.42;100.00;103066.06;5252952;28;19974;-57
2022/03/22 06:13:45;;;;;;;;;;;;;;;4.45;100.00;103073.75;5252333;28;19959;-55
2022/03/22 06:16:18;;;;;;;;;;;;;;;4.57;100.00;103072.47;5252396;28;19916;-57
2022/03/22 06:18:48;;;;;;;;;;;;;;;4.64;100.00;103073.47;5252796;28;19977;-58
2022/03/22 06:21:21;;;;;;;;;;;;;;;4.69;100.00;103079.19;5271349;28;20392;-56
2022/03/22 06:23:55;;;;;;;;;;;;;;;4.78;100.00;103077.38;5250858;28;19912;-55
2022/03/22 06:26:50;;;;;;;;;;;;;;;4.87;100.00;103083.59;5250913;28;20376;-58
2022/03/22 06:29:20;;;;;;;;;;;;;;;4.58;100.00;103036.69;5252616;28;19912;-57
2022/03/22 06:31:52;;;;;;;;;;;;;;;5.06;100.00;103094.00;5251673;28;19939;-58
2022/03/22 06:34:22;;;;;;;;;;;;;;;5.12;100.00;103088.00;5250912;28;19916;-56
2022/03/22 06:36:53;;;;;;;;;;;;;;;5.23;100.00;103100.22;5251451;28;19912;-58
2022/03/22 06:39:23;;;;;;;;;;;;;;;5.32;100.00;103093.88;5252407;28;19912;-58
2022/03/22 06:41:53;;;;;;;;;;;;;;;5.42;100.00;103090.03;5271367;28;19974;-56
2022/03/22 06:44:24;;;;;;;;;;;;;;;5.52;100.00;103091.69;5250296;28;19919;-57
2022/03/22 06:46:54;;;;;;;;;;;;;;;5.60;100.00;103100.56;5250410;28;19920;-58
2022/03/22 06:49:24;;;;;;;;;;;;;;;5.71;100.00;103100.25;5254388;28;19916;-59
2022/03/22 06:51:56;;;;;;;;;;;;;;;5.74;100.00;103093.69;5253961;28;20368;-58
2022/03/22 06:54:27;;;;;;;;;;;;;;;5.88;100.00;103101.03;5252665;28;19995;-59
2022/03/22 06:56:58;;;;;;;;;;;;;;;6.02;100.00;103103.06;5255013;28;19948;-57
2022/03/22 06:59:28;;;;;;;;;;;;;;;6.16;100.00;103103.34;5254982;28;20037;-59
2022/03/22 07:01:58;;;;;;;;;;;;;;;6.27;100.00;103111.06;5254592;28;19912;-57
2022/03/22 07:04:29;;;;;;;;;;;;;;;6.40;100.00;103105.97;5255015;28;19912;-58
2022/03/22 07:06:59;;;;;;;;;;;;;;;6.54;100.00;103101.72;5254648;28;19916;-59
2022/03/22 07:09:30;;;;;;;;;;;;;;;6.66;100.00;103106.50;5254343;28;19920;-59
2022/03/22 07:12:00;;;;;;;;;;;;;;;6.75;100.00;103110.84;5254800;28;19916;-59
2022/03/22 07:14:30;;;;;;;;;;;;;;;6.89;100.00;103108.44;5254865;28;19923;-59
2022/03/22 07:17:01;;;;;;;;;;;;;;;7.03;100.00;103107.66;5254213;28;20362;-60
2022/03/22 07:19:31;;;;;;;;;;;;;;;7.15;100.00;103108.94;5255532;28;19919;-60
2022/03/22 07:22:02;;;;;;;;;;;;;;;7.28;100.00;103111.03;5255952;28;19912;-60
2022/03/22 07:24:32;;;;;;;;;;;;;;;7.41;100.00;103108.59;5255587;28;19912;-60
2022/03/22 07:27:04;;;;;;;;;;;;;;;7.53;100.00;103114.34;5255215;28;20334;-60
2022/03/22 07:29:34;;;;;;;;;;;;;;;7.64;100.00;103111.25;5254886;28;19912;-60
2022/03/22 07:32:04;;;;;;;;;;;;;;;7.73;100.00;103111.00;5254601;28;19969;-60
2022/03/22 07:34:36;;;;;;;;;;;;;;;7.84;100.00;103109.69;5254781;28;19945;-60
2022/03/22 07:37:06;;;;;;;;;;;;;;;7.98;100.00;103119.66;5256031;28;20393;-60
2022/03/22 07:39:36;;;;;;;;;;;;;;;8.10;100.00;103107.41;5255775;28;19975;-60
2022/03/22 07:42:08;;;;;;;;;;;;;;;8.23;100.00;103109.47;5255536;28;19955;-61
2022/03/22 07:44:39;;;;;;;;;;;;;;;8.33;100.00;103118.16;5255712;28;20147;-60
2022/03/22 07:47:10;;;;;;;;;;;;;;;8.44;100.00;103109.59;5257078;28;20015;-60
2022/03/22 07:55:18;;;;;;;;;;;;;;;8.91;100.00;103110.19;5273859;28;20013;-61
2022/03/22 07:57:48;;;;;;;;;;;;;;;9.03;100.00;103112.16;5255163;28;20367;-61
2022/03/22 08:00:19;;;;;;;;;;;;;;;9.17;100.00;103118.53;5254966;28;19916;-60
2022/03/22 08:02:50;;;;;;;;;;;;;;;9.29;100.00;103117.00;5255503;28;19912;-61
2022/03/22 08:05:21;;;;;;;;;;;;;;;9.43;100.00;103116.09;5253028;28;20228;-61
2022/03/22 08:07:53;;;;;;;;;;;;;;;9.54;100.00;103125.53;5253866;28;19912;-61
2022/03/22 08:10:24;;;;;;;;;;;;;;;9.66;100.00;103110.50;5253727;28;20360;-61
2022/03/22 08:12:54;;;;;;;;;;;;;;;9.81;100.00;103119.34;5252862;28;19912;-60
2022/03/22 08:15:24;;;;;;;;;;;;;;;9.98;100.00;103109.09;5252346;28;19916;-59
2022/03/22 08:17:56;;;;;;;;;;;;;;;10.09;100.00;103113.13;5252325;28;19977;-61
2022/03/22 08:20:27;;;;;;;;;;;;;;;10.23;100.00;103112.19;5251477;28;20006;-61
2022/03/22 08:22:59;;;;;;;;;;;;;;;10.34;100.00;103110.78;5251001;28;19965;-61
2022/03/22 08:25:34;;;;;;;;;;;;;;;10.46;100.00;103110.00;5251292;28;19912;-61
2022/03/22 08:28:06;;;;;;;;;;;;;;;10.67;100.00;103106.38;5251710;28;19922;-61
2022/03/22 08:30:38;;;;;;;;;;;;;;;10.87;100.00;103111.03;5251819;28;19923;-60
2022/03/22 08:33:09;;;;;;;;;;;;;;;11.05;100.00;103111.28;5252960;28;19919;-60
2022/03/22 08:35:41;;;;;;;;;;;;;;;11.30;100.00;103112.38;5253610;28;19912;-60
2022/03/22 08:38:12;;;;;;;;;;;;;;;11.50;100.00;103109.69;5252460;28;20272;-60
2022/03/22 08:40:42;;;;;;;;;;;;;;;11.65;100.00;103109.47;5252141;28;20053;-61
2022/03/22 08:43:13;;;;;;;;;;;;;;;11.80;100.00;103110.97;5251356;28;19916;-60
2022/03/22 08:45:43;;;;;;;;;;;;;;;12.05;100.00;103102.19;5250377;28;19916;-60
2022/03/22 08:48:13;;;;;;;;;;;;;;;12.27;100.00;103105.47;5250458;28;19912;-61
2022/03/22 08:50:46;;;;;;;;;;;;;;;12.43;100.00;103102.28;5268126;28;19938;-61
2022/03/22 08:53:18;;;;;;;;;;;;;;;12.60;100.00;103105.38;5249308;28;19920;-61
2022/03/22 08:55:49;;;;;;;;;;;;;;;12.85;100.00;103111.72;5249950;28;19937;-60
2022/03/22 08:58:19;;;;;;;;;;;;;;;13.06;100.00;103107.84;5250322;28;19920;-61
2022/03/22 09:00:50;;;;;;;;;;;;;;;13.19;100.00;103102.38;5250929;28;20290;-61
2022/03/22 09:03:22;;;;;;;;;;;;;;;13.40;100.00;103103.91;5250998;28;20265;-61
2022/03/22 09:06:07;;;;;;;;;;;;;;;13.61;100.00;103103.50;5251169;28;19965;-61
2022/03/22 09:08:39;;;;;;;;;;;;;;;13.76;100.00;103103.19;5269825;28;20043;-61
2022/03/22 09:11:09;;;;;;;;;;;;;;;13.79;100.00;103100.88;5252232;28;19960;-61
2022/03/22 09:13:40;;;;;;;;;;;;;;;13.96;100.00;103103.00;5254046;28;19919;-61
2022/03/22 09:16:13;;;;;;;;;;;;;;;14.20;100.00;103093.97;5254876;28;20010;-62
2022/03/22 09:18:44;;;;;;;;;;;;;;;14.38;100.00;103087.72;5255282;28;19912;-61
2022/03/22 09:21:16;;;;;;;;;;;;;;;14.58;100.00;103088.31;5253921;28;19912;-61
2022/03/22 09:23:46;;;;;;;;;;;;;;;14.83;100.00;103090.94;5254807;28;20544;-61
2022/03/22 09:26:17;;;;;;;;;;;;;;;15.03;97.55;103090.63;5255249;28;19934;-61
2022/03/22 09:28:52;;;;;;;;;;;;;;;15.18;93.21;103080.16;5254229;28;19912;-62
2022/03/22 09:31:23;;;;;;;;;;;;;;;15.33;91.97;103088.72;5252433;28;19916;-61
2022/03/22 09:33:54;;;;;;;;;;;;;;;15.50;90.42;103084.25;5252497;28;20006;-61
2022/03/22 09:36:24;;;;;;;;;;;;;;;15.68;91.12;103085.25;5251626;28;20007;-60
2022/03/22 09:38:54;;;;;;;;;;;;;;;15.88;91.37;103083.81;5250497;28;19916;-62
2022/03/22 09:41:26;;;;;;;;;;;;;;;16.06;90.90;103088.34;5250117;28;19916;-62
2022/03/22 09:43:57;;;;;;;;;;;;;;;15.88;88.24;103039.41;5249031;28;19919;-62
2022/03/22 09:46:27;;;;;;;;;;;;;;;16.23;86.25;103087.59;5262399;22;20335;-62
2022/03/22 09:48:58;;;;;;;;;;;;;;;16.28;84.71;103088.53;5248403;28;19969;-62
2022/03/22 09:51:48;;;;;;;;;;;;;;;16.32;81.24;103077.97;5248195;28;19966;-62
2022/03/22 09:54:19;;;;;;;;;;;;;;;16.46;83.58;103079.34;5248105;28;19957;-62
2022/03/22 09:56:50;;;;;;;;;;;;;;;16.50;84.01;103086.81;5248167;28;19912;-62
2022/03/22 09:59:20;;;;;;;;;;;;;;;16.46;80.99;103079.34;5248192;28;19912;-63
2022/03/22 10:01:50;;;;;;;;;;;;;;;16.59;82.16;103079.09;5248252;28;20291;-63
2022/03/22 10:04:21;;;;;;;;;;;;;;;16.66;79.33;103078.97;5248011;28;19912;-62
2022/03/22 10:06:54;;;;;;;;;;;;;;;16.83;81.31;103075.22;5248524;28;19986;-63
2022/03/22 10:09:29;;;;;;;;;;;;;;;17.04;82.20;103070.97;5248004;28;20002;-63
2022/03/22 10:11:59;;;;;;;;;;;;;;;17.12;81.68;103075.19;5247929;28;20295;-63
2022/03/22 10:14:40;;;;;;;;;;;;;;;17.03;76.36;103074.78;5247782;28;19912;-64
2022/03/22 10:17:14;;;;;;;;;;;;;;;17.12;78.33;103070.56;5248151;28;19916;-63
2022/03/22 10:19:46;;;;;;;;;;;;;;;16.95;75.69;103033.41;5247937;28;19912;-63
2022/03/22 10:22:21;;;;;;;;;;;;;;;16.95;74.38;103067.00;5247943;28;20280;-64
2022/03/22 10:24:53;;;;;;;;;;;;;;;16.87;75.95;103067.38;5248927;28;19919;-64
2022/03/22 10:27:26;;;;;;;;;;;;;;;17.08;76.92;103065.84;5249155;28;20431;-63
2022/03/22 10:29:57;;;;;;;;;;;;;;;17.21;75.33;103063.63;5250311;28;19916;-63
2022/03/22 10:32:29;;;;;;;;;;;;;;;17.26;73.75;103067.53;5252630;28;20376;-63
2022/03/22 10:35:09;;;;;;;;;;;;;;;17.42;74.94;103056.59;5251304;28;19919;-63
2022/03/22 10:37:43;;;;;;;;;;;;;;;17.61;74.68;103070.03;5256883;28;19912;-63
2022/03/22 10:40:34;;;;;;;;;;;;;;;17.69;69.10;103067.72;5273298;28;19911;-63
2022/03/22 10:43:08;;;;;;;;;;;;;;;17.73;67.78;103063.41;5273033;28;19963;-64
2022/03/22 10:45:49;;;;;;;;;;;;;;;17.78;67.22;103068.13;5273241;28;20350;-64
2022/03/22 10:48:22;;;;;;;;;;;;;;;17.88;68.05;103060.09;5273072;28;19916;-64
2022/03/22 10:50:53;;;;;;;;;;;;;;;18.02;68.82;103061.34;5272808;28;19923;-64
2022/03/22 10:53:24;;;;;;;;;;;;;;;18.16;66.79;103059.09;5291051;28;20303;-64
2022/03/22 10:55:54;;;;;;;;;;;;;;;18.22;66.88;103058.06;5273078;28;19912;-64
2022/03/22 10:58:26;;;;;;;;;;;;;;;18.37;68.40;103051.97;5272766;28;20348;-64
2022/03/22 11:00:59;;;;;;;;;;;;;;;18.51;71.00;103043.09;5272657;28;19911;-63
2022/03/22 11:03:30;;;;;;;;;;;;;;;18.62;71.89;103052.28;5272169;28;19911;-63
2022/03/22 11:06:03;;;;;;;;;;;;;;;18.76;69.74;103050.00;5272809;28;19912;-63
2022/03/22 11:08:35;;;;;;;;;;;;;;;18.78;65.64;103043.16;5272530;28;20325;-64
2022/03/22 11:11:06;;;;;;;;;;;;;;;18.62;66.39;103044.06;5272149;28;19926;-64
2022/03/22 11:13:37;;;;;;;;;;;;;;;18.73;65.81;103045.84;5271534;28;19911;-63
2022/03/22 11:16:07;;;;;;;;;;;;;;;18.91;66.47;103038.34;5271832;28;20413;-63
2022/03/22 11:18:38;;;;;;;;;;;;;;;19.07;67.56;103040.13;5271892;28;19916;-64
2022/03/22 11:21:15;;;;;;;;;;;;;;;19.00;63.53;103029.41;5271720;28;20009;-64
2022/03/22 11:23:47;;;;;;;;;;;;;;;19.01;64.79;103027.50;5289738;28;19994;-63
2022/03/22 11:26:18;;;;;;;;;;;;;;;18.94;62.55;103029.63;5271667;28;19915;-70
2022/03/22 11:28:49;;;;;;;;;;;;;;;19.02;64.90;103020.94;5271616;28;20394;-63
2022/03/22 11:31:21;;;;;;;;;;;;;;;19.22;65.25;103027.41;5271545;28;19973;-63
2022/03/22 11:34:11;;;;;;;;;;;;;;;19.44;63.44;103019.06;5271291;28;20383;-63
2022/03/22 11:36:44;;;;;;;;;;;;;;;19.40;61.26;103017.13;5271743;28;19919;-63
2022/03/22 11:39:16;;;;;;;;;;;;;;;19.38;61.21;103020.13;5271385;28;20355;-62
2022/03/22 11:44:38;;;;;;;;;;;;;;;19.08;58.83;103017.13;5290358;28;20380;-63
2022/03/22 11:47:11;;;;;;;;;;;;;;;18.92;58.83;103015.38;5271938;28;19965;-66
2022/03/22 11:50:01;;;;;;;;;;;;;;;18.99;62.02;103011.34;5272177;28;20378;-61
2022/03/22 11:52:40;;;;;;;;;;;;;;;19.23;59.20;103009.06;5271742;28;19996;-63
2022/03/22 11:55:22;;;;;;;;;;;;;;;19.20;58.02;103009.59;5271602;28;19912;-63
2022/03/22 11:57:56;;;;;;;;;;;;;;;19.25;58.18;103003.31;5271967;28;19960;-63
2022/03/22 12:00:45;;;;;;;;;;;;;;;19.42;59.40;103004.81;5271931;28;19959;-64
2022/03/22 12:03:16;;;;;;;;;;;;;;;19.59;58.84;103009.34;5271534;28;19918;-62
2022/03/22 12:05:47;;;;;;;;;;;;;;;19.59;57.86;103003.88;5271663;28;19912;-65
2022/03/22 12:08:17;;;;;;;;;;;;;;;19.68;57.60;103007.75;5271836;28;20674;-66
2022/03/22 12:10:48;;;;;;;;;;;;;;;19.78;58.29;102999.59;5271386;28;19927;-66
2022/03/22 12:13:19;;;;;;;;;;;;;;;19.97;59.28;103000.78;5271255;28;20284;-66
2022/03/22 12:15:56;;;;;;;;;;;;;;;19.94;56.75;102995.00;5271160;28;20371;-66
2022/03/22 12:18:28;;;;;;;;;;;;;;;20.16;59.00;102990.16;5271507;28;19911;-65
2022/03/22 12:20:59;;;;;;;;;;;;;;;20.23;56.61;102988.81;5271407;28;19934;-66
2022/03/22 12:23:30;;;;;;;;;;;;;;;20.23;59.95;102986.06;5271358;28;19920;-69
2022/03/22 12:26:02;;;;;;;;;;;;;;;20.45;58.75;102976.84;5271311;28;19911;-65
2022/03/22 12:28:32;;;;;;;;;;;;;;;20.39;55.76;102983.41;5271781;28;20276;-66
2022/03/22 12:31:02;;;;;;;;;;;;;;;20.29;55.16;102980.59;5270961;28;19965;-65
2022/03/22 12:33:35;;;;;;;;;;;;;;;20.11;54.63;102980.00;5289273;28;19911;-65
2022/03/22 12:36:06;;;;;;;;;;;;;;;20.18;57.44;102979.75;5271198;28;19912;-65
2022/03/22 12:38:36;;;;;;;;;;;;;;;20.29;58.69;102958.63;5271354;28;19938;-65
2022/03/22 12:41:06;;;;;;;;;;;;;;;20.30;60.02;102965.78;5271050;28;19911;-65
2022/03/22 12:43:37;;;;;;;;;;;;;;;20.41;60.12;102962.00;5270810;28;20286;-65
2022/03/22 12:46:07;;;;;;;;;;;;;;;20.39;56.83;102955.97;5270990;28;19916;-65
2022/03/22 12:48:39;;;;;;;;;;;;;;;20.41;57.61;102960.09;5289459;28;19923;-65
2022/03/22 12:51:10;;;;;;;;;;;;;;;20.30;58.89;102952.88;5288831;28;19963;-64
2022/03/22 12:53:40;;;;;;;;;;;;;;;20.44;59.09;102950.50;5270215;28;19954;-67
2022/03/22 12:56:14;;;;;;;;;;;;;;;20.56;59.95;102948.28;5270603;28;19955;-65
2022/03/22 12:58:44;;;;;;;;;;;;;;;20.73;58.18;102943.38;5271221;28;19912;-65
2022/03/22 13:01:16;;;;;;;;;;;;;;;20.97;57.44;102938.16;5271323;28;19912;-65
2022/03/22 13:03:46;;;;;;;;;;;;;;;21.00;56.42;102939.53;5271113;28;19911;-65
2022/03/22 13:06:17;;;;;;;;;;;;;;;21.11;57.74;102938.41;5271304;28;19912;-65
2022/03/22 13:11:36;;;;;;;;;;;;;;;21.33;56.92;102930.72;5289073;28;19920;-65
2022/03/22 13:16:59;;;;;;;;;;;;;;;20.89;53.59;102931.28;5288987;28;19923;-66
2022/03/22 13:19:32;;;;;;;;;;;;;;;20.90;54.36;102921.94;5270583;28;19914;-64
2022/03/22 13:22:03;;;;;;;;;;;;;;;20.89;52.75;102920.31;5270266;28;20174;-64
2022/03/22 13:24:35;;;;;;;;;;;;;;;20.79;52.75;102923.03;5270328;28;20373;-64
2022/03/22 13:27:06;;;;;;;;;;;;;;;20.86;53.79;102912.63;5270905;28;19919;-65
2022/03/22 13:29:43;;;;;;;;;;;;;;;20.90;53.69;102910.13;5271213;28;19919;-65